sensor_id;sensor_type;location;lat;lon;timestamp;P1;durP1;ratioP1;P2;durP2;ratioP2
13238;SDS011;6686;51.292;4.166;2023-09-19T00:00:40;8.37;;;3.00;;
13238;SDS011;6686;51.292;4.166;2023-09-19T00:03:26;10.77;;;2.77;;
13238;SDS011;6686;51.292;4.166;2023-09-19T00:06:12;9.53;;;3.40;;
13238;SDS011;6686;51.292;4.166;2023-09-19T00:08:58;7.57;;;2.63;;
13238;SDS011;6686;51.292;4.166;2023-09-19T00:11:44;9.87;;;3.00;;
13238;SDS011;6686;51.292;4.166;2023-09-19T00:14:30;12.77;;;3.07;;
13238;SDS011;6686;51.292;4.166;2023-09-19T00:17:16;6.33;;;3.10;;
13238;SDS011;6686;51.292;4.166;2023-09-19T00:20:01;7.13;;;2.70;;
13238;SDS011;6686;51.292;4.166;2023-09-19T00:22:47;8.60;;;3.37;;
13238;SDS011;6686;51.292;4.166;2023-09-19T00:25:33;9.67;;;3.30;;
13238;SDS011;6686;51.292;4.166;2023-09-19T00:28:19;9.68;;;3.40;;
13238;SDS011;6686;51.292;4.166;2023-09-19T00:31:07;7.57;;;2.95;;
13238;SDS011;6686;51.292;4.166;2023-09-19T00:33:51;9.27;;;2.93;;
13238;SDS011;6686;51.292;4.166;2023-09-19T00:36:37;5.47;;;2.33;;
13238;SDS011;6686;51.292;4.166;2023-09-19T00:39:25;11.83;;;3.80;;
13238;SDS011;6686;51.292;4.166;2023-09-19T00:42:17;10.67;;;2.70;;
13238;SDS011;6686;51.292;4.166;2023-09-19T00:44:57;6.23;;;2.60;;
13238;SDS011;6686;51.292;4.166;2023-09-19T00:47:47;7.23;;;2.77;;
13238;SDS011;6686;51.292;4.166;2023-09-19T00:50:32;8.63;;;2.63;;
13238;SDS011;6686;51.292;4.166;2023-09-19T00:53:20;8.30;;;3.00;;
13238;SDS011;6686;51.292;4.166;2023-09-19T00:56:04;7.07;;;2.97;;
13238;SDS011;6686;51.292;4.166;2023-09-19T00:58:50;6.67;;;2.53;;
13238;SDS011;6686;51.292;4.166;2023-09-19T01:01:36;5.07;;;2.13;;
13238;SDS011;6686;51.292;4.166;2023-09-19T01:04:22;8.10;;;2.70;;
13238;SDS011;6686;51.292;4.166;2023-09-19T01:07:08;6.23;;;2.47;;
13238;SDS011;6686;51.292;4.166;2023-09-19T01:09:54;7.00;;;2.70;;
13238;SDS011;6686;51.292;4.166;2023-09-19T01:12:45;6.83;;;2.60;;
13238;SDS011;6686;51.292;4.166;2023-09-19T01:15:32;6.63;;;2.67;;
13238;SDS011;6686;51.292;4.166;2023-09-19T01:30:21;8.37;;;2.70;;
13238;SDS011;6686;51.292;4.166;2023-09-19T01:33:06;8.57;;;2.33;;
13238;SDS011;6686;51.292;4.166;2023-09-19T01:35:52;11.33;;;3.20;;
13238;SDS011;6686;51.292;4.166;2023-09-19T01:38:37;4.87;;;2.33;;
13238;SDS011;6686;51.292;4.166;2023-09-19T01:41:29;7.37;;;2.40;;
13238;SDS011;6686;51.292;4.166;2023-09-19T01:44:15;8.30;;;2.60;;
13238;SDS011;6686;51.292;4.166;2023-09-19T01:46:58;8.17;;;2.50;;
13238;SDS011;6686;51.292;4.166;2023-09-19T01:49:44;8.00;;;2.33;;
13238;SDS011;6686;51.292;4.166;2023-09-19T01:52:30;6.87;;;2.80;;
13238;SDS011;6686;51.292;4.166;2023-09-19T01:55:15;10.40;;;2.47;;
13238;SDS011;6686;51.292;4.166;2023-09-19T01:58:06;9.60;;;2.60;;
13238;SDS011;6686;51.292;4.166;2023-09-19T02:00:53;7.53;;;2.30;;
13238;SDS011;6686;51.292;4.166;2023-09-19T02:03:39;4.90;;;2.23;;
13238;SDS011;6686;51.292;4.166;2023-09-19T02:06:25;7.43;;;2.60;;
13238;SDS011;6686;51.292;4.166;2023-09-19T02:09:11;4.80;;;2.27;;
13238;SDS011;6686;51.292;4.166;2023-09-19T02:11:57;6.03;;;2.70;;
13238;SDS011;6686;51.292;4.166;2023-09-19T02:14:43;5.33;;;2.30;;
13238;SDS011;6686;51.292;4.166;2023-09-19T02:17:28;10.60;;;3.22;;
13238;SDS011;6686;51.292;4.166;2023-09-19T02:20:15;9.77;;;3.00;;
13238;SDS011;6686;51.292;4.166;2023-09-19T02:23:01;8.13;;;2.80;;
13238;SDS011;6686;51.292;4.166;2023-09-19T02:25:53;9.40;;;3.00;;
13238;SDS011;6686;51.292;4.166;2023-09-19T02:28:38;6.97;;;2.47;;
13238;SDS011;6686;51.292;4.166;2023-09-19T02:31:25;11.23;;;3.23;;
13238;SDS011;6686;51.292;4.166;2023-09-19T02:34:11;11.33;;;3.00;;
13238;SDS011;6686;51.292;4.166;2023-09-19T02:36:56;7.47;;;2.63;;
13238;SDS011;6686;51.292;4.166;2023-09-19T02:39:42;6.47;;;2.63;;
13238;SDS011;6686;51.292;4.166;2023-09-19T02:42:28;10.27;;;2.93;;
13238;SDS011;6686;51.292;4.166;2023-09-19T02:45:15;10.38;;;3.12;;
13238;SDS011;6686;51.292;4.166;2023-09-19T02:48:00;9.57;;;3.43;;
13238;SDS011;6686;51.292;4.166;2023-09-19T02:50:49;11.43;;;2.80;;
13238;SDS011;6686;51.292;4.166;2023-09-19T02:53:35;12.57;;;3.33;;
13238;SDS011;6686;51.292;4.166;2023-09-19T02:56:21;11.40;;;3.20;;
13238;SDS011;6686;51.292;4.166;2023-09-19T02:59:07;8.20;;;2.67;;
13238;SDS011;6686;51.292;4.166;2023-09-19T03:01:53;8.13;;;2.57;;
13238;SDS011;6686;51.292;4.166;2023-09-19T03:04:39;10.83;;;3.10;;
13238;SDS011;6686;51.292;4.166;2023-09-19T03:07:25;12.70;;;3.03;;
13238;SDS011;6686;51.292;4.166;2023-09-19T03:10:11;8.93;;;2.93;;
13238;SDS011;6686;51.292;4.166;2023-09-19T03:12:57;10.90;;;2.67;;
13238;SDS011;6686;51.292;4.166;2023-09-19T03:15:43;8.13;;;2.67;;
13238;SDS011;6686;51.292;4.166;2023-09-19T03:18:34;7.90;;;2.77;;
13238;SDS011;6686;51.292;4.166;2023-09-19T03:23:58;7.47;;;2.50;;
13238;SDS011;6686;51.292;4.166;2023-09-19T03:26:44;12.50;;;3.55;;
13238;SDS011;6686;51.292;4.166;2023-09-19T03:29:30;7.67;;;3.10;;
13238;SDS011;6686;51.292;4.166;2023-09-19T03:32:16;11.00;;;3.30;;
13238;SDS011;6686;51.292;4.166;2023-09-19T03:35:02;8.10;;;2.87;;
13238;SDS011;6686;51.292;4.166;2023-09-19T03:37:48;9.60;;;3.03;;
13238;SDS011;6686;51.292;4.166;2023-09-19T03:40:33;10.70;;;2.67;;
13238;SDS011;6686;51.292;4.166;2023-09-19T03:43:19;9.37;;;2.67;;
13238;SDS011;6686;51.292;4.166;2023-09-19T03:46:05;11.57;;;2.90;;
13238;SDS011;6686;51.292;4.166;2023-09-19T03:48:51;6.43;;;2.50;;
13238;SDS011;6686;51.292;4.166;2023-09-19T03:51:37;11.67;;;2.97;;
13238;SDS011;6686;51.292;4.166;2023-09-19T03:54:23;8.83;;;2.80;;
13238;SDS011;6686;51.292;4.166;2023-09-19T03:57:09;9.23;;;2.80;;
13238;SDS011;6686;51.292;4.166;2023-09-19T03:59:55;9.87;;;3.00;;
13238;SDS011;6686;51.292;4.166;2023-09-19T04:02:41;7.17;;;3.27;;
13238;SDS011;6686;51.292;4.166;2023-09-19T04:05:27;5.23;;;2.30;;
13238;SDS011;6686;51.292;4.166;2023-09-19T04:08:13;12.73;;;3.03;;
13238;SDS011;6686;51.292;4.166;2023-09-19T04:10:59;8.53;;;2.77;;
13238;SDS011;6686;51.292;4.166;2023-09-19T04:13:45;7.17;;;2.57;;
13238;SDS011;6686;51.292;4.166;2023-09-19T04:16:31;8.63;;;2.67;;
13238;SDS011;6686;51.292;4.166;2023-09-19T04:19:17;8.70;;;2.70;;
13238;SDS011;6686;51.292;4.166;2023-09-19T04:22:04;9.73;;;3.00;;
13238;SDS011;6686;51.292;4.166;2023-09-19T04:24:50;9.25;;;3.00;;
13238;SDS011;6686;51.292;4.166;2023-09-19T04:27:36;11.67;;;3.00;;
13238;SDS011;6686;51.292;4.166;2023-09-19T04:30:22;8.87;;;2.93;;
13238;SDS011;6686;51.292;4.166;2023-09-19T04:33:07;13.43;;;2.97;;
13238;SDS011;6686;51.292;4.166;2023-09-19T04:35:53;5.70;;;2.47;;
13238;SDS011;6686;51.292;4.166;2023-09-19T04:38:39;10.90;;;2.77;;
13238;SDS011;6686;51.292;4.166;2023-09-19T04:41:25;8.87;;;2.87;;
13238;SDS011;6686;51.292;4.166;2023-09-19T04:44:11;9.67;;;2.80;;
13238;SDS011;6686;51.292;4.166;2023-09-19T04:46:56;8.73;;;2.70;;
13238;SDS011;6686;51.292;4.166;2023-09-19T04:49:42;8.47;;;2.80;;
13238;SDS011;6686;51.292;4.166;2023-09-19T04:52:29;5.83;;;2.63;;
13238;SDS011;6686;51.292;4.166;2023-09-19T04:55:14;10.17;;;2.80;;
13238;SDS011;6686;51.292;4.166;2023-09-19T04:58:03;11.13;;;2.90;;
13238;SDS011;6686;51.292;4.166;2023-09-19T05:00:48;12.97;;;2.93;;
13238;SDS011;6686;51.292;4.166;2023-09-19T05:03:34;11.03;;;3.10;;
13238;SDS011;6686;51.292;4.166;2023-09-19T05:06:20;10.43;;;2.93;;
13238;SDS011;6686;51.292;4.166;2023-09-19T05:09:06;8.60;;;2.70;;
13238;SDS011;6686;51.292;4.166;2023-09-19T05:11:52;15.10;;;2.90;;
13238;SDS011;6686;51.292;4.166;2023-09-19T05:14:38;8.70;;;2.73;;
13238;SDS011;6686;51.292;4.166;2023-09-19T05:17:24;9.17;;;2.77;;
13238;SDS011;6686;51.292;4.166;2023-09-19T05:20:10;9.40;;;2.63;;
13238;SDS011;6686;51.292;4.166;2023-09-19T05:23:02;9.60;;;2.93;;
13238;SDS011;6686;51.292;4.166;2023-09-19T05:25:47;9.80;;;2.70;;
13238;SDS011;6686;51.292;4.166;2023-09-19T05:28:33;8.57;;;2.83;;
13238;SDS011;6686;51.292;4.166;2023-09-19T05:31:20;7.87;;;2.60;;
13238;SDS011;6686;51.292;4.166;2023-09-19T05:34:06;9.23;;;2.87;;
13238;SDS011;6686;51.292;4.166;2023-09-19T05:36:52;7.07;;;2.70;;
13238;SDS011;6686;51.292;4.166;2023-09-19T05:39:38;9.93;;;3.43;;
13238;SDS011;6686;51.292;4.166;2023-09-19T05:42:24;11.65;;;3.20;;
13238;SDS011;6686;51.292;4.166;2023-09-19T05:45:10;15.10;;;3.27;;
13238;SDS011;6686;51.292;4.166;2023-09-19T05:47:56;12.13;;;3.20;;
13238;SDS011;6686;51.292;4.166;2023-09-19T05:50:43;13.77;;;2.90;;
13238;SDS011;6686;51.292;4.166;2023-09-19T05:53:28;8.97;;;2.87;;
13238;SDS011;6686;51.292;4.166;2023-09-19T05:56:14;9.00;;;2.70;;
13238;SDS011;6686;51.292;4.166;2023-09-19T05:59:00;9.97;;;2.70;;
13238;SDS011;6686;51.292;4.166;2023-09-19T06:01:46;13.63;;;3.20;;
13238;SDS011;6686;51.292;4.166;2023-09-19T06:04:32;11.33;;;2.90;;
13238;SDS011;6686;51.292;4.166;2023-09-19T06:07:17;12.33;;;3.27;;
13238;SDS011;6686;51.292;4.166;2023-09-19T06:10:03;5.70;;;2.47;;
13238;SDS011;6686;51.292;4.166;2023-09-19T06:12:49;12.57;;;3.23;;
13238;SDS011;6686;51.292;4.166;2023-09-19T06:15:35;12.35;;;3.47;;
13238;SDS011;6686;51.292;4.166;2023-09-19T06:18:21;10.90;;;3.40;;
13238;SDS011;6686;51.292;4.166;2023-09-19T06:21:07;12.05;;;3.42;;
13238;SDS011;6686;51.292;4.166;2023-09-19T06:23:54;9.35;;;3.55;;
13238;SDS011;6686;51.292;4.166;2023-09-19T06:26:40;7.87;;;3.03;;
13238;SDS011;6686;51.292;4.166;2023-09-19T06:29:26;9.93;;;3.30;;
13238;SDS011;6686;51.292;4.166;2023-09-19T06:32:12;13.10;;;3.30;;
13238;SDS011;6686;51.292;4.166;2023-09-19T06:34:58;13.60;;;3.47;;
13238;SDS011;6686;51.292;4.166;2023-09-19T06:37:44;10.73;;;3.00;;
13238;SDS011;6686;51.292;4.166;2023-09-19T06:40:29;8.63;;;3.40;;
13238;SDS011;6686;51.292;4.166;2023-09-19T06:43:16;9.00;;;2.57;;
13238;SDS011;6686;51.292;4.166;2023-09-19T06:46:02;10.17;;;2.90;;
13238;SDS011;6686;51.292;4.166;2023-09-19T06:48:48;7.80;;;2.70;;
13238;SDS011;6686;51.292;4.166;2023-09-19T06:51:34;13.47;;;3.07;;
13238;SDS011;6686;51.292;4.166;2023-09-19T06:54:19;8.37;;;2.53;;
13238;SDS011;6686;51.292;4.166;2023-09-19T06:57:05;9.53;;;2.87;;
13238;SDS011;6686;51.292;4.166;2023-09-19T06:59:52;10.87;;;3.63;;
13238;SDS011;6686;51.292;4.166;2023-09-19T07:02:38;11.90;;;3.30;;
13238;SDS011;6686;51.292;4.166;2023-09-19T07:05:24;9.47;;;3.03;;
13238;SDS011;6686;51.292;4.166;2023-09-19T07:08:10;15.33;;;3.33;;
13238;SDS011;6686;51.292;4.166;2023-09-19T07:10:56;9.03;;;2.50;;
13238;SDS011;6686;51.292;4.166;2023-09-19T07:13:42;11.23;;;2.97;;
13238;SDS011;6686;51.292;4.166;2023-09-19T07:16:28;8.67;;;2.77;;
13238;SDS011;6686;51.292;4.166;2023-09-19T07:19:14;9.83;;;3.13;;
13238;SDS011;6686;51.292;4.166;2023-09-19T07:22:00;11.77;;;3.37;;
13238;SDS011;6686;51.292;4.166;2023-09-19T07:24:46;9.95;;;3.35;;
13238;SDS011;6686;51.292;4.166;2023-09-19T07:27:31;11.20;;;2.57;;
13238;SDS011;6686;51.292;4.166;2023-09-19T07:30:17;5.70;;;2.30;;
13238;SDS011;6686;51.292;4.166;2023-09-19T07:33:03;6.57;;;2.53;;
13238;SDS011;6686;51.292;4.166;2023-09-19T07:35:49;9.95;;;3.62;;
13238;SDS011;6686;51.292;4.166;2023-09-19T07:38:35;6.77;;;2.80;;
13238;SDS011;6686;51.292;4.166;2023-09-19T07:41:21;8.50;;;2.80;;
13238;SDS011;6686;51.292;4.166;2023-09-19T07:44:07;8.73;;;2.43;;
13238;SDS011;6686;51.292;4.166;2023-09-19T07:46:52;10.37;;;2.80;;
13238;SDS011;6686;51.292;4.166;2023-09-19T07:49:39;7.77;;;2.77;;
13238;SDS011;6686;51.292;4.166;2023-09-19T07:52:25;7.83;;;2.90;;
13238;SDS011;6686;51.292;4.166;2023-09-19T07:55:11;13.37;;;3.20;;
13238;SDS011;6686;51.292;4.166;2023-09-19T07:57:57;10.17;;;3.07;;
13238;SDS011;6686;51.292;4.166;2023-09-19T08:00:43;9.73;;;3.42;;
13238;SDS011;6686;51.292;4.166;2023-09-19T08:03:30;11.37;;;3.17;;
13238;SDS011;6686;51.292;4.166;2023-09-19T08:06:15;11.30;;;2.67;;
13238;SDS011;6686;51.292;4.166;2023-09-19T08:09:01;8.93;;;3.07;;
13238;SDS011;6686;51.292;4.166;2023-09-19T08:11:47;10.33;;;3.03;;
13238;SDS011;6686;51.292;4.166;2023-09-19T08:14:33;6.60;;;2.70;;
13238;SDS011;6686;51.292;4.166;2023-09-19T08:17:19;11.27;;;2.83;;
13238;SDS011;6686;51.292;4.166;2023-09-19T08:20:05;6.90;;;2.70;;
13238;SDS011;6686;51.292;4.166;2023-09-19T08:22:51;9.33;;;2.73;;
13238;SDS011;6686;51.292;4.166;2023-09-19T08:25:40;12.52;;;3.55;;
13238;SDS011;6686;51.292;4.166;2023-09-19T08:28:26;10.87;;;2.90;;
13238;SDS011;6686;51.292;4.166;2023-09-19T08:31:12;8.50;;;3.40;;
13238;SDS011;6686;51.292;4.166;2023-09-19T08:33:58;9.67;;;3.00;;
13238;SDS011;6686;51.292;4.166;2023-09-19T08:36:44;12.27;;;4.25;;
13238;SDS011;6686;51.292;4.166;2023-09-19T08:39:30;8.10;;;3.10;;
13238;SDS011;6686;51.292;4.166;2023-09-19T08:42:16;10.63;;;3.00;;
13238;SDS011;6686;51.292;4.166;2023-09-19T08:45:02;8.73;;;2.70;;
13238;SDS011;6686;51.292;4.166;2023-09-19T08:47:52;8.47;;;2.47;;
13238;SDS011;6686;51.292;4.166;2023-09-19T08:50:39;11.30;;;2.77;;
13238;SDS011;6686;51.292;4.166;2023-09-19T08:56:18;10.93;;;2.90;;
13238;SDS011;6686;51.292;4.166;2023-09-19T08:59:03;8.30;;;2.47;;
13238;SDS011;6686;51.292;4.166;2023-09-19T09:01:49;12.77;;;3.00;;
13238;SDS011;6686;51.292;4.166;2023-09-19T09:04:35;8.83;;;2.80;;
13238;SDS011;6686;51.292;4.166;2023-09-19T09:07:21;12.17;;;2.60;;
13238;SDS011;6686;51.292;4.166;2023-09-19T09:10:06;10.67;;;2.47;;
13238;SDS011;6686;51.292;4.166;2023-09-19T09:12:53;6.30;;;2.60;;
13238;SDS011;6686;51.292;4.166;2023-09-19T09:15:39;6.57;;;2.53;;
13238;SDS011;6686;51.292;4.166;2023-09-19T09:18:25;10.47;;;2.37;;
13238;SDS011;6686;51.292;4.166;2023-09-19T09:21:11;7.97;;;2.53;;
13238;SDS011;6686;51.292;4.166;2023-09-19T09:23:57;8.03;;;2.40;;
13238;SDS011;6686;51.292;4.166;2023-09-19T09:26:43;7.87;;;2.93;;
13238;SDS011;6686;51.292;4.166;2023-09-19T09:29:42;9.85;;;3.45;;
13238;SDS011;6686;51.292;4.166;2023-09-19T09:32:24;6.57;;;2.60;;
13238;SDS011;6686;51.292;4.166;2023-09-19T09:35:15;5.47;;;1.97;;
13238;SDS011;6686;51.292;4.166;2023-09-19T09:38:01;6.37;;;2.57;;
13238;SDS011;6686;51.292;4.166;2023-09-19T09:40:48;9.67;;;2.70;;
13238;SDS011;6686;51.292;4.166;2023-09-19T09:43:34;9.37;;;2.80;;
13238;SDS011;6686;51.292;4.166;2023-09-19T09:46:25;6.57;;;2.40;;
13238;SDS011;6686;51.292;4.166;2023-09-19T09:49:11;4.67;;;2.10;;
13238;SDS011;6686;51.292;4.166;2023-09-19T09:52:06;5.93;;;2.20;;
13238;SDS011;6686;51.292;4.166;2023-09-19T09:55:01;6.07;;;2.33;;
13238;SDS011;6686;51.292;4.166;2023-09-19T09:57:52;9.20;;;2.37;;
13238;SDS011;6686;51.292;4.166;2023-09-19T10:00:35;6.87;;;2.03;;
13238;SDS011;6686;51.292;4.166;2023-09-19T10:03:21;7.03;;;2.00;;
13238;SDS011;6686;51.292;4.166;2023-09-19T10:06:07;7.23;;;1.80;;
13238;SDS011;6686;51.292;4.166;2023-09-19T10:11:45;7.20;;;2.10;;
13238;SDS011;6686;51.292;4.166;2023-09-19T10:14:31;7.97;;;2.30;;
13238;SDS011;6686;51.292;4.166;2023-09-19T10:17:17;7.63;;;2.30;;
13238;SDS011;6686;51.292;4.166;2023-09-19T10:20:02;7.43;;;2.93;;
13238;SDS011;6686;51.292;4.166;2023-09-19T10:22:51;4.57;;;2.20;;
13238;SDS011;6686;51.292;4.166;2023-09-19T10:25:38;6.40;;;2.13;;
13238;SDS011;6686;51.292;4.166;2023-09-19T10:28:23;10.17;;;2.20;;
13238;SDS011;6686;51.292;4.166;2023-09-19T10:31:08;7.53;;;2.13;;
13238;SDS011;6686;51.292;4.166;2023-09-19T10:33:55;8.43;;;2.10;;
13238;SDS011;6686;51.292;4.166;2023-09-19T10:36:44;6.87;;;2.00;;
13238;SDS011;6686;51.292;4.166;2023-09-19T10:39:26;8.60;;;2.07;;
13238;SDS011;6686;51.292;4.166;2023-09-19T10:42:14;6.23;;;2.40;;
13238;SDS011;6686;51.292;4.166;2023-09-19T10:44:58;8.37;;;1.80;;
13238;SDS011;6686;51.292;4.166;2023-09-19T10:47:44;4.33;;;2.07;;
13238;SDS011;6686;51.292;4.166;2023-09-19T10:50:31;6.43;;;2.27;;
13238;SDS011;6686;51.292;4.166;2023-09-19T10:53:16;4.70;;;2.37;;
13238;SDS011;6686;51.292;4.166;2023-09-19T10:56:02;7.57;;;1.83;;
13238;SDS011;6686;51.292;4.166;2023-09-19T10:58:47;6.60;;;1.97;;
13238;SDS011;6686;51.292;4.166;2023-09-19T11:01:46;6.43;;;1.90;;
13238;SDS011;6686;51.292;4.166;2023-09-19T11:07:18;5.30;;;2.27;;
13238;SDS011;6686;51.292;4.166;2023-09-19T11:10:03;3.70;;;1.70;;
13238;SDS011;6686;51.292;4.166;2023-09-19T11:12:49;3.93;;;1.30;;
13238;SDS011;6686;51.292;4.166;2023-09-19T11:27:10;6.67;;;1.60;;
13238;SDS011;6686;51.292;4.166;2023-09-19T11:30:25;5.10;;;1.70;;
13238;SDS011;6686;51.292;4.166;2023-09-19T11:38:58;4.97;;;1.53;;
13238;SDS011;6686;51.292;4.166;2023-09-19T11:41:44;8.77;;;1.60;;
13238;SDS011;6686;51.292;4.166;2023-09-19T11:47:16;3.80;;;1.37;;
13238;SDS011;6686;51.292;4.166;2023-09-19T11:50:01;4.03;;;1.60;;
13238;SDS011;6686;51.292;4.166;2023-09-19T11:52:47;6.17;;;1.60;;
13238;SDS011;6686;51.292;4.166;2023-09-19T11:55:34;3.83;;;1.67;;
13238;SDS011;6686;51.292;4.166;2023-09-19T11:58:20;4.72;;;1.50;;
13238;SDS011;6686;51.292;4.166;2023-09-19T12:01:06;3.53;;;1.33;;
13238;SDS011;6686;51.292;4.166;2023-09-19T12:03:52;2.80;;;1.13;;
13238;SDS011;6686;51.292;4.166;2023-09-19T12:06:37;3.80;;;1.20;;
13238;SDS011;6686;51.292;4.166;2023-09-19T12:09:23;3.13;;;1.40;;
13238;SDS011;6686;51.292;4.166;2023-09-19T12:12:08;1.90;;;1.40;;
13238;SDS011;6686;51.292;4.166;2023-09-19T12:14:55;3.60;;;1.40;;
13238;SDS011;6686;51.292;4.166;2023-09-19T12:17:41;4.03;;;1.37;;
13238;SDS011;6686;51.292;4.166;2023-09-19T12:20:43;3.60;;;1.27;;
13238;SDS011;6686;51.292;4.166;2023-09-19T12:23:27;4.50;;;1.40;;
13238;SDS011;6686;51.292;4.166;2023-09-19T12:26:13;4.97;;;1.40;;
13238;SDS011;6686;51.292;4.166;2023-09-19T12:28:59;5.20;;;1.60;;
13238;SDS011;6686;51.292;4.166;2023-09-19T12:31:49;3.93;;;1.67;;
13238;SDS011;6686;51.292;4.166;2023-09-19T12:34:34;3.73;;;1.47;;
13238;SDS011;6686;51.292;4.166;2023-09-19T12:37:20;4.43;;;1.67;;
13238;SDS011;6686;51.292;4.166;2023-09-19T12:40:08;4.93;;;1.80;;
13238;SDS011;6686;51.292;4.166;2023-09-19T12:43:03;3.73;;;1.47;;
13238;SDS011;6686;51.292;4.166;2023-09-19T12:45:49;4.53;;;1.67;;
13238;SDS011;6686;51.292;4.166;2023-09-19T12:48:35;7.63;;;2.13;;
13238;SDS011;6686;51.292;4.166;2023-09-19T12:51:21;4.90;;;1.77;;
13238;SDS011;6686;51.292;4.166;2023-09-19T12:54:07;5.63;;;1.83;;
13238;SDS011;6686;51.292;4.166;2023-09-19T12:56:53;6.90;;;3.00;;
13238;SDS011;6686;51.292;4.166;2023-09-19T12:59:38;3.53;;;2.00;;
13238;SDS011;6686;51.292;4.166;2023-09-19T13:02:24;3.67;;;2.00;;
13238;SDS011;6686;51.292;4.166;2023-09-19T13:05:10;4.77;;;1.67;;
13238;SDS011;6686;51.292;4.166;2023-09-19T13:07:56;6.95;;;2.00;;
13238;SDS011;6686;51.292;4.166;2023-09-19T13:19:49;5.00;;;2.27;;
13238;SDS011;6686;51.292;4.166;2023-09-19T13:22:44;4.00;;;1.73;;
13238;SDS011;6686;51.292;4.166;2023-09-19T13:25:35;3.53;;;1.80;;
13238;SDS011;6686;51.292;4.166;2023-09-19T13:28:20;5.10;;;1.93;;
13238;SDS011;6686;51.292;4.166;2023-09-19T13:31:06;4.40;;;1.77;;
13238;SDS011;6686;51.292;4.166;2023-09-19T13:33:52;3.10;;;1.60;;
13238;SDS011;6686;51.292;4.166;2023-09-19T13:36:38;5.33;;;2.10;;
13238;SDS011;6686;51.292;4.166;2023-09-19T13:39:24;4.10;;;2.20;;
13238;SDS011;6686;51.292;4.166;2023-09-19T13:42:10;3.93;;;1.87;;
13238;SDS011;6686;51.292;4.166;2023-09-19T13:44:57;4.90;;;2.07;;
13238;SDS011;6686;51.292;4.166;2023-09-19T13:47:43;4.93;;;1.80;;
13238;SDS011;6686;51.292;4.166;2023-09-19T13:50:29;3.77;;;1.73;;
13238;SDS011;6686;51.292;4.166;2023-09-19T13:53:15;3.53;;;1.93;;
13238;SDS011;6686;51.292;4.166;2023-09-19T13:56:01;3.40;;;1.73;;
13238;SDS011;6686;51.292;4.166;2023-09-19T13:58:47;5.00;;;1.73;;
13238;SDS011;6686;51.292;4.166;2023-09-19T14:01:32;5.07;;;1.70;;
13238;SDS011;6686;51.292;4.166;2023-09-19T14:04:19;5.72;;;1.95;;
13238;SDS011;6686;51.292;4.166;2023-09-19T14:07:04;4.33;;;1.97;;
13238;SDS011;6686;51.292;4.166;2023-09-19T14:09:50;7.90;;;1.70;;
13238;SDS011;6686;51.292;4.166;2023-09-19T14:12:36;3.47;;;1.70;;
13238;SDS011;6686;51.292;4.166;2023-09-19T14:15:27;4.20;;;2.13;;
13238;SDS011;6686;51.292;4.166;2023-09-19T14:18:15;3.62;;;2.05;;
13238;SDS011;6686;51.292;4.166;2023-09-19T14:21:04;4.07;;;1.77;;
13238;SDS011;6686;51.292;4.166;2023-09-19T14:23:50;5.03;;;2.03;;
13238;SDS011;6686;51.292;4.166;2023-09-19T14:26:37;3.60;;;1.77;;
13238;SDS011;6686;51.292;4.166;2023-09-19T14:29:23;3.67;;;1.90;;
13238;SDS011;6686;51.292;4.166;2023-09-19T14:32:08;5.63;;;1.97;;
13238;SDS011;6686;51.292;4.166;2023-09-19T14:34:54;3.20;;;2.00;;
13238;SDS011;6686;51.292;4.166;2023-09-19T14:37:40;3.23;;;2.07;;
13238;SDS011;6686;51.292;4.166;2023-09-19T14:40:27;4.30;;;1.60;;
13238;SDS011;6686;51.292;4.166;2023-09-19T14:43:13;3.77;;;1.93;;
13238;SDS011;6686;51.292;4.166;2023-09-19T14:46:04;8.40;;;2.10;;
13238;SDS011;6686;51.292;4.166;2023-09-19T14:48:51;3.63;;;1.80;;
13238;SDS011;6686;51.292;4.166;2023-09-19T14:51:37;5.77;;;2.27;;
13238;SDS011;6686;51.292;4.166;2023-09-19T14:54:22;4.90;;;1.90;;
13238;SDS011;6686;51.292;4.166;2023-09-19T14:57:08;3.17;;;1.77;;
13238;SDS011;6686;51.292;4.166;2023-09-19T14:59:54;5.22;;;2.67;;
13238;SDS011;6686;51.292;4.166;2023-09-19T15:02:40;4.13;;;2.03;;
13238;SDS011;6686;51.292;4.166;2023-09-19T15:05:26;5.20;;;1.90;;
13238;SDS011;6686;51.292;4.166;2023-09-19T15:08:11;4.53;;;1.90;;
13238;SDS011;6686;51.292;4.166;2023-09-19T15:10:57;5.80;;;2.10;;
13238;SDS011;6686;51.292;4.166;2023-09-19T15:13:43;5.67;;;2.23;;
13238;SDS011;6686;51.292;4.166;2023-09-19T15:16:28;6.83;;;2.67;;
13238;SDS011;6686;51.292;4.166;2023-09-19T15:19:14;5.07;;;2.13;;
13238;SDS011;6686;51.292;4.166;2023-09-19T15:22:00;3.70;;;2.17;;
13238;SDS011;6686;51.292;4.166;2023-09-19T15:24:46;6.97;;;2.33;;
13238;SDS011;6686;51.292;4.166;2023-09-19T15:27:32;6.15;;;2.58;;
13238;SDS011;6686;51.292;4.166;2023-09-19T15:30:18;4.90;;;2.17;;
13238;SDS011;6686;51.292;4.166;2023-09-19T15:33:04;6.63;;;2.10;;
13238;SDS011;6686;51.292;4.166;2023-09-19T15:35:50;6.07;;;2.53;;
13238;SDS011;6686;51.292;4.166;2023-09-19T15:41:46;8.33;;;2.40;;
13238;SDS011;6686;51.292;4.166;2023-09-19T15:44:32;6.63;;;2.40;;
13238;SDS011;6686;51.292;4.166;2023-09-19T15:47:18;5.77;;;2.23;;
13238;SDS011;6686;51.292;4.166;2023-09-19T15:50:04;7.82;;;2.53;;
13238;SDS011;6686;51.292;4.166;2023-09-19T15:52:53;6.87;;;2.37;;
13238;SDS011;6686;51.292;4.166;2023-09-19T15:55:39;4.57;;;2.13;;
13238;SDS011;6686;51.292;4.166;2023-09-19T15:58:25;4.90;;;2.20;;
13238;SDS011;6686;51.292;4.166;2023-09-19T16:01:11;5.30;;;2.13;;
13238;SDS011;6686;51.292;4.166;2023-09-19T16:03:56;6.00;;;2.27;;
13238;SDS011;6686;51.292;4.166;2023-09-19T16:06:42;5.17;;;2.27;;
13238;SDS011;6686;51.292;4.166;2023-09-19T16:09:28;7.90;;;2.27;;
13238;SDS011;6686;51.292;4.166;2023-09-19T16:12:15;6.00;;;2.37;;
13238;SDS011;6686;51.292;4.166;2023-09-19T16:15:00;6.20;;;2.80;;
13238;SDS011;6686;51.292;4.166;2023-09-19T16:17:46;6.57;;;2.60;;
13238;SDS011;6686;51.292;4.166;2023-09-19T16:20:32;8.40;;;2.33;;
13238;SDS011;6686;51.292;4.166;2023-09-19T16:23:18;5.67;;;2.40;;
13238;SDS011;6686;51.292;4.166;2023-09-19T16:26:04;6.47;;;2.23;;
13238;SDS011;6686;51.292;4.166;2023-09-19T16:28:53;4.03;;;2.30;;
13238;SDS011;6686;51.292;4.166;2023-09-19T16:31:38;3.57;;;2.10;;
13238;SDS011;6686;51.292;4.166;2023-09-19T16:34:24;6.93;;;2.47;;
13238;SDS011;6686;51.292;4.166;2023-09-19T16:37:10;4.63;;;2.73;;
13238;SDS011;6686;51.292;4.166;2023-09-19T16:39:56;4.63;;;2.47;;
13238;SDS011;6686;51.292;4.166;2023-09-19T16:42:42;8.33;;;2.63;;
13238;SDS011;6686;51.292;4.166;2023-09-19T16:45:28;10.00;;;3.47;;
13238;SDS011;6686;51.292;4.166;2023-09-19T16:48:14;5.93;;;2.30;;
13238;SDS011;6686;51.292;4.166;2023-09-19T16:51:04;6.17;;;2.70;;
13238;SDS011;6686;51.292;4.166;2023-09-19T16:53:46;6.57;;;2.30;;
13238;SDS011;6686;51.292;4.166;2023-09-19T16:56:32;7.30;;;2.90;;
13238;SDS011;6686;51.292;4.166;2023-09-19T16:59:18;5.50;;;2.30;;
13238;SDS011;6686;51.292;4.166;2023-09-19T17:02:04;5.10;;;2.17;;
13238;SDS011;6686;51.292;4.166;2023-09-19T17:04:49;7.77;;;2.33;;
13238;SDS011;6686;51.292;4.166;2023-09-19T17:07:35;8.17;;;2.53;;
13238;SDS011;6686;51.292;4.166;2023-09-19T17:10:21;6.30;;;2.80;;
13238;SDS011;6686;51.292;4.166;2023-09-19T17:13:07;9.10;;;2.97;;
13238;SDS011;6686;51.292;4.166;2023-09-19T17:16:03;5.30;;;2.47;;
13238;SDS011;6686;51.292;4.166;2023-09-19T17:18:46;6.70;;;2.80;;
13238;SDS011;6686;51.292;4.166;2023-09-19T17:21:32;6.97;;;3.13;;
13238;SDS011;6686;51.292;4.166;2023-09-19T17:24:18;7.80;;;2.90;;
13238;SDS011;6686;51.292;4.166;2023-09-19T17:27:04;6.13;;;3.20;;
13238;SDS011;6686;51.292;4.166;2023-09-19T17:29:50;8.30;;;3.53;;
13238;SDS011;6686;51.292;4.166;2023-09-19T17:32:36;7.37;;;2.87;;
13238;SDS011;6686;51.292;4.166;2023-09-19T17:35:22;9.27;;;3.57;;
13238;SDS011;6686;51.292;4.166;2023-09-19T17:38:08;8.03;;;3.10;;
13238;SDS011;6686;51.292;4.166;2023-09-19T17:40:54;8.67;;;3.33;;
13238;SDS011;6686;51.292;4.166;2023-09-19T17:43:40;7.77;;;3.53;;
13238;SDS011;6686;51.292;4.166;2023-09-19T17:46:26;7.60;;;3.40;;
13238;SDS011;6686;51.292;4.166;2023-09-19T17:49:11;6.30;;;2.93;;